Vale, North Carolina
Current Conditions -  °F | °C
As of 5:53 AM on Tuesday 21 Oct 2014 (Local Time) from KHKY Reporting Station
Clear Clear  
Wind Chill: 51°   Ceiling: Unl
Heat Index: 51°   Visibility: 10mi
Dew Point: 48°   Wind: 6mph
Humidity: 89%   Direction: 350°N
Pressure: 29.94"   Gusts: NA
Location:  35.54°N, 81.43°W
Report Text: KHKY 210953Z AUTO 35005KT 10SM CLR 11/09 A2994 RMK AO2 SLP125 T01060089 $
Loading
Personal Weather Stations






























Interactive Weather Map
Tropical Storm Tracking
New forecast layout! Learn more

10-Day Weather Forecast

Advertisements
Track Severe Weather on mobile